createdAt,value
2022-08-17T00:00:42.598Z,12.60
2022-08-17T00:01:24.162Z,12.70
2022-08-17T00:02:26.267Z,12.00
2022-08-17T00:03:22.720Z,12.50
2022-08-17T00:04:22.573Z,13.10
2022-08-17T00:05:22.440Z,12.10
2022-08-17T00:06:22.807Z,11.80
2022-08-17T00:07:22.359Z,14.10
2022-08-17T00:08:22.375Z,11.40
2022-08-17T00:09:22.492Z,12.20
2022-08-17T00:10:22.564Z,16.10
2022-08-17T00:11:22.750Z,12.60
2022-08-17T00:12:41.997Z,13.10
2022-08-17T00:13:23.265Z,12.40
2022-08-17T00:14:22.265Z,12.50
2022-08-17T00:15:22.253Z,14.80
2022-08-17T00:16:22.581Z,11.90
2022-08-17T00:17:23.270Z,12.40
2022-08-17T00:19:06.483Z,11.60
2022-08-17T00:19:23.250Z,11.90
2022-08-17T00:20:23.401Z,13.70
2022-08-17T00:22:36.078Z,12.20
2022-08-17T00:23:32.413Z,11.40
2022-08-17T00:24:32.336Z,13.00
2022-08-17T00:25:32.385Z,12.30
2022-08-17T00:26:45.137Z,12.50
2022-08-17T00:27:32.328Z,12.30
2022-08-17T00:28:33.276Z,12.00
2022-08-17T00:29:32.286Z,11.90
2022-08-17T00:30:50.891Z,12.60
2022-08-17T00:31:33.702Z,11.90
2022-08-17T00:33:15.012Z,12.70
2022-08-17T00:33:39.468Z,13.10
2022-08-17T00:34:32.260Z,13.70
2022-08-17T00:35:32.662Z,12.70
2022-08-17T00:36:32.360Z,12.60
2022-08-17T00:37:32.174Z,12.90
2022-08-17T00:38:41.265Z,13.40
2022-08-17T00:39:41.443Z,12.90
2022-08-17T00:40:44.220Z,13.00
2022-08-17T00:41:33.249Z,13.00
2022-08-17T00:42:39.376Z,12.30
2022-08-17T00:44:53.195Z,12.50
2022-08-17T00:46:02.112Z,13.10
2022-08-17T00:46:53.012Z,13.30
2022-08-17T00:49:09.331Z,15.10
2022-08-17T00:50:17.705Z,12.60
2022-08-17T00:51:16.357Z,12.80
2022-08-17T00:52:10.713Z,12.90
2022-08-17T00:53:17.800Z,13.30
2022-08-17T00:54:16.291Z,13.20
2022-08-17T00:55:09.537Z,13.30
2022-08-17T00:56:16.848Z,13.40
2022-08-17T00:57:18.481Z,13.40
2022-08-17T00:58:09.104Z,12.80
2022-08-17T00:59:16.271Z,13.20
2022-08-17T01:00:18.101Z,14.20
2022-08-17T01:01:09.132Z,13.00
2022-08-17T01:02:16.213Z,13.10
2022-08-17T01:03:09.126Z,13.50
2022-08-17T01:04:16.234Z,12.60
2022-08-17T01:05:16.580Z,13.60
2022-08-17T01:06:08.987Z,12.90
2022-08-17T01:07:08.936Z,12.80
2022-08-17T01:08:08.933Z,13.20
2022-08-17T01:09:08.875Z,13.20
2022-08-17T01:11:00.039Z,13.30
2022-08-17T01:11:09.907Z,13.80
2022-08-17T01:12:08.915Z,14.20
2022-08-17T01:13:08.797Z,13.50
2022-08-17T01:14:08.817Z,14.40
2022-08-17T01:15:08.805Z,13.80
2022-08-17T01:16:09.252Z,14.60
2022-08-17T01:17:08.788Z,14.60
2022-08-17T01:18:08.765Z,15.00
2022-08-17T01:19:08.767Z,15.70
2022-08-17T01:20:08.725Z,15.90
2022-08-17T01:21:08.737Z,15.50
2022-08-17T01:22:09.131Z,14.90
2022-08-17T01:23:08.718Z,16.00
2022-08-17T01:24:08.694Z,15.30
2022-08-17T01:25:08.665Z,15.70
2022-08-17T01:26:08.682Z,15.10
2022-08-17T01:27:10.081Z,15.10
2022-08-17T01:28:09.047Z,15.30
2022-08-17T01:29:08.594Z,15.00
2022-08-17T01:30:57.252Z,17.80
2022-08-17T01:31:09.648Z,14.90
2022-08-17T01:32:08.604Z,14.20
2022-08-17T01:33:08.573Z,14.30
2022-08-17T01:34:08.959Z,14.30
2022-08-17T01:35:08.552Z,14.40
2022-08-17T01:36:08.593Z,14.10
2022-08-17T01:37:08.542Z,14.40
2022-08-17T01:38:08.505Z,14.20
2022-08-17T01:39:08.846Z,15.40
2022-08-17T01:40:08.597Z,15.10
2022-08-17T01:41:08.443Z,13.90
2022-08-17T01:42:08.472Z,14.50
2022-08-17T01:43:08.457Z,15.00
2022-08-17T01:44:08.850Z,14.80
2022-08-17T01:45:08.404Z,15.20
2022-08-17T01:46:08.431Z,14.90
2022-08-17T01:47:08.400Z,14.20
2022-08-17T01:48:08.361Z,15.60
2022-08-17T01:49:08.757Z,14.30
2022-08-17T01:50:08.350Z,15.30
2022-08-17T01:51:08.333Z,15.00
2022-08-17T01:52:08.318Z,17.10
2022-08-17T01:53:08.720Z,14.80
2022-08-17T01:54:08.332Z,14.90
2022-08-17T01:55:08.284Z,15.20
2022-08-17T01:56:08.270Z,15.00
2022-08-17T01:57:08.319Z,15.10
2022-08-17T01:58:08.628Z,14.80
2022-08-17T01:59:08.248Z,16.80
2022-08-17T02:00:08.231Z,14.40
2022-08-17T02:01:08.243Z,14.70
2022-08-17T02:02:08.185Z,14.10
2022-08-17T02:03:08.500Z,16.50
2022-08-17T02:04:08.158Z,14.50
2022-08-17T02:05:08.149Z,14.30
2022-08-17T02:06:27.898Z,14.60
2022-08-17T02:07:09.108Z,14.80
2022-08-17T02:08:08.586Z,17.90
2022-08-17T02:09:09.097Z,14.80
2022-08-17T02:10:20.352Z,13.90
2022-08-17T02:11:11.696Z,14.60
2022-08-17T02:12:37.595Z,14.30
2022-08-17T02:13:09.386Z,14.80
2022-08-17T02:14:08.028Z,14.60
2022-08-17T02:15:07.992Z,14.50
2022-08-17T02:16:07.990Z,14.50
2022-08-17T02:17:08.041Z,14.10
2022-08-17T02:18:08.406Z,14.00
2022-08-17T02:19:08.024Z,15.20
2022-08-17T02:20:07.949Z,18.70
2022-08-17T02:21:07.946Z,14.50
2022-08-17T02:22:08.794Z,14.40
2022-08-17T02:23:08.347Z,14.10
2022-08-17T02:24:07.894Z,13.50
2022-08-17T02:25:07.895Z,14.30
2022-08-17T02:26:07.906Z,16.70
2022-08-17T02:27:08.225Z,15.20
2022-08-17T02:28:07.877Z,14.00
2022-08-17T02:29:07.841Z,15.80
2022-08-17T02:30:59.779Z,15.00
2022-08-17T02:31:08.841Z,15.30
2022-08-17T02:32:15.417Z,15.00
2022-08-17T02:33:15.267Z,14.60
2022-08-17T02:34:07.881Z,14.10
2022-08-17T02:35:07.742Z,15.10
2022-08-17T02:36:07.766Z,14.40
2022-08-17T02:37:15.314Z,13.50
2022-08-17T02:38:07.744Z,15.00
2022-08-17T02:39:07.685Z,14.70
2022-08-17T02:40:14.915Z,14.20
2022-08-17T02:41:07.674Z,13.90
2022-08-17T02:42:15.183Z,14.00
2022-08-17T02:43:07.642Z,14.50
2022-08-17T02:44:07.639Z,13.80
2022-08-17T02:45:07.642Z,14.20
2022-08-17T02:46:07.637Z,14.30
2022-08-17T02:47:07.940Z,14.30
2022-08-17T02:48:07.598Z,14.10
2022-08-17T02:49:07.569Z,15.70
2022-08-17T02:50:07.561Z,14.30
2022-08-17T02:51:07.559Z,14.70
2022-08-17T02:52:07.532Z,14.30
2022-08-17T02:53:08.183Z,14.00
2022-08-17T02:54:41.031Z,14.00
2022-08-17T02:55:08.512Z,14.90
2022-08-17T02:56:07.489Z,14.30
2022-08-17T02:57:07.478Z,14.40
2022-08-17T02:58:07.479Z,14.50
2022-08-17T02:59:07.878Z,14.40
2022-08-17T03:00:07.446Z,15.00
2022-08-17T03:01:07.419Z,15.40
2022-08-17T03:02:07.497Z,14.10
2022-08-17T03:03:07.398Z,14.60
2022-08-17T03:04:07.397Z,14.40
2022-08-17T03:05:07.859Z,14.30
2022-08-17T03:06:07.398Z,15.00
2022-08-17T03:07:07.510Z,14.90
2022-08-17T03:08:07.352Z,14.50
2022-08-17T03:09:08.577Z,14.40
2022-08-17T03:10:07.377Z,14.80
2022-08-17T03:11:07.700Z,14.30
2022-08-17T03:12:07.295Z,15.20
2022-08-17T03:13:07.252Z,14.80
2022-08-17T03:14:07.264Z,14.40
2022-08-17T03:15:07.247Z,14.70
2022-08-17T03:16:07.575Z,13.80
2022-08-17T03:17:07.195Z,15.00
2022-08-17T03:18:07.222Z,16.40
2022-08-17T03:19:08.172Z,14.80
2022-08-17T03:20:07.207Z,15.00
2022-08-17T03:21:07.145Z,14.90
2022-08-17T03:22:35.614Z,15.80
2022-08-17T03:23:08.135Z,15.00
2022-08-17T03:24:09.061Z,14.80
2022-08-17T03:25:10.597Z,14.50
2022-08-17T03:26:07.106Z,14.90
2022-08-17T03:27:08.583Z,14.80
2022-08-17T03:28:07.081Z,14.30
2022-08-17T03:29:07.065Z,14.00
2022-08-17T03:30:07.054Z,14.10
2022-08-17T03:31:07.013Z,15.00
2022-08-17T03:32:07.019Z,14.90
2022-08-17T03:33:11.339Z,15.50
2022-08-17T03:34:11.912Z,14.30
2022-08-17T03:35:06.989Z,15.20
2022-08-17T03:36:06.972Z,14.40
2022-08-17T03:37:07.024Z,14.60
2022-08-17T03:38:07.343Z,14.30
2022-08-17T03:39:06.933Z,14.80
2022-08-17T03:40:06.979Z,14.70
2022-08-17T03:41:06.922Z,14.50
2022-08-17T03:42:06.900Z,14.50
2022-08-17T03:43:07.222Z,14.20
2022-08-17T03:44:06.878Z,14.60
2022-08-17T03:45:06.859Z,16.20
2022-08-17T03:46:11.099Z,14.70
2022-08-17T03:47:07.830Z,15.10
2022-08-17T03:48:07.263Z,15.00
2022-08-17T03:49:06.822Z,14.50
2022-08-17T03:50:10.392Z,13.90
2022-08-17T03:51:08.517Z,15.30
2022-08-17T03:52:06.777Z,14.30
2022-08-17T03:53:07.190Z,15.00
2022-08-17T03:54:06.739Z,14.80
2022-08-17T03:55:06.723Z,15.00
2022-08-17T03:56:06.708Z,15.30
2022-08-17T03:57:06.720Z,15.70
2022-08-17T03:58:07.998Z,15.50
2022-08-17T03:59:07.131Z,13.90
2022-08-17T04:00:08.369Z,14.40
2022-08-17T04:01:06.726Z,14.60
2022-08-17T04:02:14.857Z,15.90
2022-08-17T04:03:15.178Z,14.60
2022-08-17T04:04:07.066Z,14.80
2022-08-17T04:05:06.611Z,14.60
2022-08-17T04:06:06.867Z,14.60
2022-08-17T04:07:06.626Z,15.00
2022-08-17T04:08:06.580Z,14.20
2022-08-17T04:09:06.563Z,14.70
2022-08-17T04:10:06.846Z,15.20
2022-08-17T04:11:06.526Z,14.50
2022-08-17T04:12:06.540Z,15.80
2022-08-17T04:13:06.506Z,14.50
2022-08-17T04:14:06.876Z,15.20
2022-08-17T04:15:06.475Z,15.30
2022-08-17T04:16:06.535Z,15.60
2022-08-17T04:17:06.456Z,14.30
2022-08-17T04:18:07.557Z,14.30
2022-08-17T04:19:06.783Z,14.30
2022-08-17T04:20:06.425Z,14.70
2022-08-17T04:21:06.413Z,14.20
2022-08-17T04:22:06.404Z,14.50
2022-08-17T04:23:06.384Z,14.40
2022-08-17T04:24:06.855Z,15.60
2022-08-17T04:25:06.363Z,14.50
2022-08-17T04:26:06.345Z,14.70
2022-08-17T04:27:06.318Z,14.80
2022-08-17T04:28:15.793Z,14.50
2022-08-17T04:29:07.726Z,15.70
2022-08-17T04:30:06.276Z,15.00
2022-08-17T04:31:06.276Z,14.40
2022-08-17T04:32:06.277Z,14.40
2022-08-17T04:33:07.343Z,16.40
2022-08-17T04:34:06.669Z,15.20
2022-08-17T04:35:06.240Z,17.00
2022-08-17T04:36:06.218Z,14.80
2022-08-17T04:37:06.192Z,14.30
2022-08-17T04:38:06.186Z,14.40
2022-08-17T04:39:06.168Z,19.80
2022-08-17T04:40:06.556Z,15.00
2022-08-17T04:41:06.165Z,15.00
2022-08-17T04:42:06.202Z,15.30
2022-08-17T04:43:06.122Z,14.80
2022-08-17T04:44:06.161Z,14.70
2022-08-17T04:45:06.098Z,14.20
2022-08-17T04:46:06.432Z,14.40
2022-08-17T04:47:06.082Z,14.20
2022-08-17T04:48:06.071Z,15.40
2022-08-17T04:49:06.031Z,14.90
2022-08-17T04:50:06.042Z,15.00
2022-08-17T04:51:06.042Z,15.10
2022-08-17T04:52:06.360Z,15.40
2022-08-17T04:53:05.989Z,14.80
2022-08-17T04:54:06.026Z,17.10
2022-08-17T04:55:05.986Z,14.70
2022-08-17T04:56:05.985Z,14.60
2022-08-17T04:57:05.989Z,15.20
2022-08-17T04:58:06.367Z,14.70
2022-08-17T04:59:05.929Z,14.80
2022-08-17T05:00:06.064Z,14.80
2022-08-17T05:01:06.087Z,14.90
2022-08-17T05:02:05.877Z,15.50
2022-08-17T05:03:06.270Z,16.20
2022-08-17T05:04:21.466Z,14.90
2022-08-17T05:05:06.826Z,15.00
2022-08-17T05:06:05.841Z,19.90
2022-08-17T05:07:05.829Z,18.20
2022-08-17T05:08:05.800Z,17.30
2022-08-17T05:09:06.167Z,16.20
2022-08-17T05:10:05.776Z,14.90
2022-08-17T05:11:05.764Z,15.20
2022-08-17T05:12:05.725Z,14.40
2022-08-17T05:13:05.734Z,14.30
2022-08-17T05:14:05.696Z,13.60
2022-08-17T05:15:06.057Z,14.10
2022-08-17T05:16:05.713Z,14.10
2022-08-17T05:17:07.478Z,16.10
2022-08-17T05:18:06.706Z,14.80
2022-08-17T05:19:05.646Z,13.60
2022-08-17T05:20:05.624Z,13.10
2022-08-17T05:21:05.982Z,13.10
2022-08-17T05:22:05.659Z,13.90
2022-08-17T05:23:05.597Z,14.20
2022-08-17T05:24:08.025Z,13.00
2022-08-17T05:25:06.574Z,14.70
2022-08-17T05:26:06.304Z,14.10
2022-08-17T05:27:18.743Z,13.50
2022-08-17T05:28:05.865Z,13.60
2022-08-17T05:29:05.519Z,15.80
2022-08-17T05:30:05.542Z,14.10
2022-08-17T05:31:05.513Z,12.90
2022-08-17T05:32:38.805Z,12.60
2022-08-17T05:33:06.474Z,14.80
2022-08-17T05:34:05.463Z,12.80
2022-08-17T05:35:05.453Z,13.40
2022-08-17T05:36:05.467Z,12.80
2022-08-17T05:37:05.415Z,12.80
2022-08-17T05:38:05.843Z,12.40
2022-08-17T05:39:05.401Z,16.30
2022-08-17T05:40:05.405Z,12.70
2022-08-17T05:41:05.443Z,13.90
2022-08-17T05:42:05.813Z,13.90
2022-08-17T05:43:05.353Z,13.30
2022-08-17T05:44:05.649Z,13.00
2022-08-17T05:45:05.322Z,14.50
2022-08-17T05:46:05.345Z,15.40
2022-08-17T05:47:05.748Z,17.20
2022-08-17T05:48:05.293Z,14.20
2022-08-17T05:49:05.284Z,13.90
2022-08-17T05:50:09.747Z,13.00
2022-08-17T05:51:05.300Z,14.90
2022-08-17T05:52:05.222Z,18.00
2022-08-17T05:53:05.593Z,14.60
2022-08-17T05:54:05.183Z,13.50
2022-08-17T05:55:05.242Z,13.40
2022-08-17T05:56:05.192Z,13.70
2022-08-17T05:57:05.150Z,15.30
2022-08-17T05:58:05.173Z,13.30
2022-08-17T05:59:05.552Z,13.00
2022-08-17T06:00:05.113Z,12.20
2022-08-17T06:01:05.190Z,13.50
2022-08-17T06:02:05.099Z,11.70
2022-08-17T06:03:05.097Z,12.50
2022-08-17T06:04:05.066Z,12.70
2022-08-17T06:05:05.508Z,12.90
2022-08-17T06:06:05.027Z,12.80
2022-08-17T06:07:05.051Z,12.20
2022-08-17T06:08:05.026Z,12.80
2022-08-17T06:09:04.992Z,13.30
2022-08-17T06:10:05.524Z,12.70
2022-08-17T06:11:04.972Z,12.70
2022-08-17T06:12:04.990Z,14.80
2022-08-17T06:13:04.962Z,11.80
2022-08-17T06:14:04.930Z,13.50
2022-08-17T06:15:04.930Z,13.00
2022-08-17T06:16:05.324Z,13.00
2022-08-17T06:17:05.913Z,13.80
2022-08-17T06:18:04.928Z,14.70
2022-08-17T06:19:04.863Z,12.10
2022-08-17T06:20:05.312Z,12.70
2022-08-17T06:21:04.849Z,12.00
2022-08-17T06:22:04.941Z,12.30
2022-08-17T06:23:04.820Z,12.00
2022-08-17T06:24:04.834Z,12.10
2022-08-17T06:25:05.178Z,11.30
2022-08-17T06:26:05.779Z,13.90
2022-08-17T06:27:05.160Z,12.00
2022-08-17T06:28:05.409Z,10.90
2022-08-17T06:29:04.741Z,11.90
2022-08-17T06:30:05.115Z,11.40
2022-08-17T06:31:04.751Z,11.30
2022-08-17T06:32:04.717Z,12.60
2022-08-17T06:33:04.699Z,11.20
2022-08-17T06:34:05.366Z,10.70
2022-08-17T06:35:04.990Z,11.00
2022-08-17T06:36:09.241Z,10.20
2022-08-17T06:37:05.638Z,12.20
2022-08-17T06:38:04.629Z,11.80
2022-08-17T06:39:04.625Z,11.40
2022-08-17T06:40:04.667Z,10.80
2022-08-17T06:41:05.009Z,11.10
2022-08-17T06:42:04.599Z,14.20
2022-08-17T06:43:06.388Z,12.10
2022-08-17T06:44:04.539Z,13.30
2022-08-17T06:45:04.539Z,12.10
2022-08-17T06:46:04.536Z,11.50
2022-08-17T06:47:04.956Z,10.40
2022-08-17T06:48:04.546Z,10.70
2022-08-17T06:49:04.560Z,11.20
2022-08-17T06:50:05.573Z,10.90
2022-08-17T06:51:04.488Z,12.10
2022-08-17T06:52:04.553Z,10.60
2022-08-17T06:53:04.782Z,13.20
2022-08-17T06:54:04.487Z,10.10
2022-08-17T06:55:04.432Z,11.70
2022-08-17T06:56:04.418Z,10.10
2022-08-17T06:57:04.442Z,12.80
2022-08-17T06:58:05.225Z,11.60
2022-08-17T06:59:05.741Z,11.50
2022-08-17T07:00:04.530Z,10.80
2022-08-17T07:01:04.418Z,11.60
2022-08-17T07:02:04.381Z,11.00
2022-08-17T07:03:04.604Z,10.30
2022-08-17T07:04:06.755Z,10.50
2022-08-17T07:05:05.283Z,9.90
2022-08-17T07:06:04.281Z,10.00
2022-08-17T07:07:04.268Z,12.40
2022-08-17T07:08:04.256Z,10.10
2022-08-17T07:09:04.259Z,9.90
2022-08-17T07:10:04.297Z,10.30
2022-08-17T07:11:04.228Z,10.90
2022-08-17T07:12:04.198Z,10.00
2022-08-17T07:13:04.180Z,12.30
2022-08-17T07:14:04.167Z,11.40
2022-08-17T07:15:04.179Z,12.00
2022-08-17T07:16:04.730Z,12.40
2022-08-17T07:17:04.138Z,11.90
2022-08-17T07:18:04.128Z,14.10
2022-08-17T07:19:04.109Z,10.00
2022-08-17T07:20:04.108Z,15.70
2022-08-17T07:21:04.079Z,11.70
2022-08-17T07:22:04.684Z,9.50
2022-08-17T07:23:04.049Z,11.40
2022-08-17T07:24:04.048Z,11.80
2022-08-17T07:25:04.076Z,10.40
2022-08-17T07:26:04.016Z,9.20
2022-08-17T07:27:04.019Z,10.00
2022-08-17T07:28:06.100Z,11.50
2022-08-17T07:29:03.982Z,12.10
2022-08-17T07:30:09.506Z,9.40
2022-08-17T07:31:04.961Z,10.80
2022-08-17T07:32:03.968Z,8.80
2022-08-17T07:33:04.430Z,9.90
2022-08-17T07:34:03.933Z,9.30
2022-08-17T07:35:03.910Z,10.40
2022-08-17T07:36:03.891Z,8.20
2022-08-17T07:37:03.889Z,8.80
2022-08-17T07:38:03.889Z,9.10
2022-08-17T07:39:04.262Z,8.70
2022-08-17T07:40:15.981Z,8.90
2022-08-17T07:41:04.873Z,9.70
2022-08-17T07:42:03.814Z,9.30
2022-08-17T07:43:04.963Z,9.40
2022-08-17T07:44:04.202Z,9.00
2022-08-17T07:45:03.799Z,13.00
2022-08-17T07:46:03.810Z,9.30
2022-08-17T07:47:03.769Z,9.70
2022-08-17T07:48:03.749Z,10.40
2022-08-17T07:49:03.736Z,11.00
2022-08-17T07:50:04.151Z,8.20
2022-08-17T07:51:03.742Z,8.80
2022-08-17T07:52:24.221Z,8.80
2022-08-17T07:53:04.682Z,10.40
2022-08-17T07:54:13.467Z,8.90
2022-08-17T07:55:05.077Z,12.00
2022-08-17T07:56:03.641Z,10.60
2022-08-17T07:57:03.680Z,8.90
2022-08-17T07:58:03.626Z,9.10
2022-08-17T07:59:03.611Z,9.10
2022-08-17T08:00:03.901Z,8.90
2022-08-17T08:01:03.600Z,9.70
2022-08-17T08:02:03.661Z,8.70
2022-08-17T08:03:03.570Z,10.50
2022-08-17T08:04:03.551Z,12.20
2022-08-17T08:05:06.652Z,8.90
2022-08-17T08:06:03.540Z,10.10
2022-08-17T08:07:03.510Z,8.60
2022-08-17T08:08:03.514Z,9.80
2022-08-17T08:09:03.511Z,9.00
2022-08-17T08:10:03.842Z,10.00
2022-08-17T08:11:03.472Z,9.60
2022-08-17T08:12:03.451Z,9.60
2022-08-17T08:13:03.444Z,9.90
2022-08-17T08:14:03.439Z,11.60
2022-08-17T08:15:03.621Z,9.00
2022-08-17T08:16:03.408Z,9.30
2022-08-17T08:17:03.382Z,8.80
2022-08-17T08:18:03.377Z,9.20
2022-08-17T08:19:10.517Z,11.10
2022-08-17T08:20:51.555Z,10.40
2022-08-17T08:21:10.436Z,9.20
2022-08-17T08:22:10.481Z,11.20
2022-08-17T08:23:10.427Z,10.50
2022-08-17T08:24:10.444Z,11.20
2022-08-17T08:25:10.444Z,9.60
2022-08-17T08:26:13.159Z,10.50
2022-08-17T08:27:10.434Z,10.50
2022-08-17T08:28:10.407Z,10.40
2022-08-17T08:29:11.733Z,13.00
2022-08-17T08:30:10.353Z,12.80
2022-08-17T08:31:03.538Z,10.40
2022-08-17T08:32:03.224Z,10.80
2022-08-17T08:33:03.272Z,11.00
2022-08-17T08:34:03.208Z,9.30
2022-08-17T08:35:03.687Z,9.30
2022-08-17T08:36:03.605Z,9.40
2022-08-17T08:37:16.381Z,12.10
2022-08-17T08:38:04.152Z,10.50
2022-08-17T08:39:03.111Z,10.60
2022-08-17T08:40:03.199Z,11.20
2022-08-17T08:41:03.117Z,10.30
2022-08-17T08:42:03.170Z,10.00
2022-08-17T08:43:03.080Z,10.30
2022-08-17T08:44:03.050Z,10.60
2022-08-17T08:45:04.814Z,15.20
2022-08-17T08:46:03.455Z,9.80
2022-08-17T08:47:03.029Z,9.80
2022-08-17T08:48:05.553Z,11.70
2022-08-17T08:49:10.024Z,11.60
2022-08-17T08:50:05.105Z,8.00
2022-08-17T08:51:03.278Z,10.30
2022-08-17T08:52:02.960Z,7.20
2022-08-17T08:53:02.970Z,8.30
2022-08-17T08:54:02.931Z,8.30
2022-08-17T08:55:03.334Z,7.60
2022-08-17T08:56:02.900Z,8.90
2022-08-17T08:57:24.424Z,9.50
2022-08-17T08:58:03.889Z,7.40
2022-08-17T08:59:03.111Z,8.00
2022-08-17T09:00:02.886Z,11.40
2022-08-17T09:01:03.326Z,7.30
2022-08-17T09:02:02.833Z,9.80
2022-08-17T09:03:02.814Z,9.70
2022-08-17T09:04:19.577Z,9.80
2022-08-17T09:05:15.564Z,7.60
2022-08-17T09:06:03.788Z,10.20
2022-08-17T09:07:02.770Z,9.70
2022-08-17T09:08:02.772Z,8.60
2022-08-17T09:09:02.761Z,8.70
2022-08-17T09:10:03.089Z,9.50
2022-08-17T09:11:02.729Z,7.50
2022-08-17T09:12:03.817Z,9.90
2022-08-17T09:13:09.603Z,9.10
2022-08-17T09:14:03.672Z,10.10
2022-08-17T09:15:02.989Z,8.20
2022-08-17T09:16:02.661Z,7.50
2022-08-17T09:17:02.652Z,8.60
2022-08-17T09:18:59.068Z,9.20
2022-08-17T09:19:04.862Z,8.30
2022-08-17T09:20:03.635Z,9.20
2022-08-17T09:21:02.661Z,7.70
2022-08-17T09:22:02.640Z,8.50
2022-08-17T09:23:02.560Z,10.60
2022-08-17T09:24:02.578Z,12.20
2022-08-17T09:25:02.536Z,8.30
2022-08-17T09:26:02.743Z,9.50
2022-08-17T09:27:02.504Z,12.20
2022-08-17T09:28:02.494Z,10.80
2022-08-17T09:29:02.492Z,9.80
2022-08-17T09:30:02.489Z,9.40
2022-08-17T09:31:02.465Z,8.60
2022-08-17T09:32:02.871Z,8.30
2022-08-17T09:33:02.478Z,8.50
2022-08-17T09:34:02.426Z,7.90
2022-08-17T09:35:02.401Z,9.90
2022-08-17T09:36:02.409Z,8.30
2022-08-17T09:37:02.371Z,13.00
2022-08-17T09:38:02.419Z,9.60
2022-08-17T09:39:02.361Z,10.10
2022-08-17T09:40:02.500Z,8.30
2022-08-17T09:41:02.329Z,10.40
2022-08-17T09:42:02.334Z,7.70
2022-08-17T09:43:02.821Z,9.20
2022-08-17T09:44:02.314Z,10.00
2022-08-17T09:45:02.293Z,9.30
2022-08-17T09:46:02.281Z,8.50
2022-08-17T09:47:02.249Z,7.90
2022-08-17T09:48:02.251Z,8.50
2022-08-17T09:49:02.728Z,10.80
2022-08-17T09:50:02.233Z,9.40
2022-08-17T09:51:05.734Z,9.00
2022-08-17T09:52:02.199Z,12.00
2022-08-17T09:53:02.177Z,9.30
2022-08-17T09:54:34.928Z,11.30
2022-08-17T09:55:03.150Z,10.10
2022-08-17T09:56:02.159Z,9.00
2022-08-17T09:57:27.983Z,8.40
2022-08-17T09:58:03.129Z,9.40
2022-08-17T09:59:02.494Z,9.60
2022-08-17T10:00:02.121Z,8.10
2022-08-17T10:01:02.155Z,9.20
2022-08-17T10:02:02.066Z,8.70
2022-08-17T10:03:02.083Z,8.10
2022-08-17T10:04:02.068Z,12.80
2022-08-17T10:05:02.024Z,9.30
2022-08-17T10:06:02.045Z,8.50
2022-08-17T10:07:02.019Z,9.90
2022-08-17T10:08:02.469Z,10.80
2022-08-17T10:09:02.595Z,10.20
2022-08-17T10:10:02.039Z,12.50
2022-08-17T10:11:01.990Z,8.40
2022-08-17T10:12:01.940Z,11.40
2022-08-17T10:13:02.268Z,17.60
2022-08-17T10:14:01.959Z,14.40
2022-08-17T10:15:08.117Z,20.70
2022-08-17T10:16:02.981Z,15.10
2022-08-17T10:17:01.917Z,11.30
2022-08-17T10:18:02.331Z,14.40
2022-08-17T10:19:01.870Z,11.20
2022-08-17T10:20:01.981Z,11.70
2022-08-17T10:21:01.889Z,14.90
2022-08-17T10:22:32.704Z,14.60
2022-08-17T10:23:03.290Z,13.20
2022-08-17T10:24:01.809Z,11.70
2022-08-17T10:25:21.907Z,10.70
2022-08-17T10:26:02.798Z,10.80
2022-08-17T10:27:02.539Z,14.50
2022-08-17T10:28:02.200Z,11.70
2022-08-17T10:29:01.740Z,14.40
2022-08-17T10:30:01.764Z,12.40
2022-08-17T10:31:30.938Z,11.30
2022-08-17T10:32:02.699Z,13.20
2022-08-17T10:33:01.694Z,11.80
2022-08-17T10:34:02.044Z,14.00
2022-08-17T10:35:01.679Z,14.30
2022-08-17T10:36:01.705Z,12.30
2022-08-17T10:37:01.780Z,12.30
2022-08-17T10:38:01.705Z,11.70
2022-08-17T10:39:02.108Z,11.40
2022-08-17T10:40:01.662Z,12.50
2022-08-17T10:41:01.609Z,12.10
2022-08-17T10:42:01.571Z,12.90
2022-08-17T10:43:01.663Z,11.30
2022-08-17T10:44:40.321Z,11.40
2022-08-17T10:45:02.979Z,11.60
2022-08-17T10:46:17.100Z,12.10
2022-08-17T10:47:02.552Z,13.50
2022-08-17T10:48:05.789Z,11.60
2022-08-17T10:49:03.145Z,11.60
2022-08-17T10:50:01.470Z,11.30
2022-08-17T10:51:01.465Z,11.80
2022-08-17T10:52:01.455Z,11.50
2022-08-17T10:53:02.849Z,12.30
2022-08-17T10:54:01.420Z,11.50
2022-08-17T10:55:01.446Z,10.90
2022-08-17T10:56:01.411Z,11.20
2022-08-17T10:57:01.400Z,13.10
2022-08-17T10:58:01.406Z,11.20
2022-08-17T10:59:01.347Z,10.70
2022-08-17T11:00:01.361Z,10.80
2022-08-17T11:01:01.920Z,12.10
2022-08-17T11:02:01.369Z,10.90
2022-08-17T11:03:01.338Z,13.30
2022-08-17T11:04:01.328Z,12.10
2022-08-17T11:05:01.365Z,10.30
2022-08-17T11:06:01.320Z,9.00
2022-08-17T11:07:01.278Z,10.00
2022-08-17T11:08:01.270Z,8.90
2022-08-17T11:09:01.269Z,9.10
2022-08-17T11:10:01.270Z,9.00
2022-08-17T11:11:01.529Z,8.90
2022-08-17T11:12:01.209Z,9.30
2022-08-17T11:13:01.179Z,8.50
2022-08-17T11:14:01.206Z,9.60
2022-08-17T11:15:01.148Z,10.60
2022-08-17T11:16:06.125Z,8.30
2022-08-17T11:17:02.166Z,8.70
2022-08-17T11:18:01.347Z,9.00
2022-08-17T11:19:01.916Z,8.50
2022-08-17T11:20:01.167Z,8.70
2022-08-17T11:21:01.103Z,9.90
2022-08-17T11:22:01.080Z,8.60
2022-08-17T11:23:01.094Z,9.00
2022-08-17T11:24:01.059Z,9.00
2022-08-17T11:25:01.070Z,8.70
2022-08-17T11:26:01.436Z,8.40
2022-08-17T11:27:00.988Z,8.80
2022-08-17T11:28:01.010Z,9.20
2022-08-17T11:29:00.976Z,9.50
2022-08-17T11:30:02.517Z,9.40
2022-08-17T11:31:01.189Z,9.90
2022-08-17T11:32:00.929Z,12.10
2022-08-17T11:33:00.972Z,10.50
2022-08-17T11:34:00.924Z,8.80
2022-08-17T11:35:00.897Z,9.30
2022-08-17T11:36:00.932Z,9.20
2022-08-17T11:37:00.888Z,9.70
2022-08-17T11:38:00.899Z,10.90
2022-08-17T11:39:00.876Z,10.10
2022-08-17T11:40:01.104Z,8.90
2022-08-17T11:41:00.868Z,9.70
2022-08-17T11:42:00.820Z,9.50
2022-08-17T11:43:00.827Z,10.90
2022-08-17T11:44:01.990Z,8.20
2022-08-17T11:45:01.020Z,10.90
2022-08-17T11:46:00.767Z,9.40
2022-08-17T11:47:00.768Z,8.50
2022-08-17T11:48:26.513Z,12.10
2022-08-17T11:49:01.772Z,9.00
2022-08-17T11:50:01.157Z,8.90
2022-08-17T11:51:00.701Z,11.00
2022-08-17T11:52:01.200Z,9.00
2022-08-17T11:53:00.976Z,9.40
2022-08-17T11:54:30.633Z,10.50
2022-08-17T11:55:24.183Z,9.60
2022-08-17T11:56:01.651Z,10.10
2022-08-17T11:57:00.609Z,10.60
2022-08-17T11:58:00.731Z,10.30
2022-08-17T11:59:00.588Z,10.20
2022-08-17T12:00:00.828Z,8.60
2022-08-17T12:01:00.572Z,11.70
2022-08-17T12:02:00.558Z,9.60
2022-08-17T12:03:00.560Z,8.50
2022-08-17T12:04:00.552Z,10.30
2022-08-17T12:05:00.771Z,9.40
2022-08-17T12:06:00.506Z,11.40
2022-08-17T12:07:00.488Z,9.50
2022-08-17T12:08:00.476Z,8.00
2022-08-17T12:09:00.542Z,9.50
2022-08-17T12:10:01.007Z,7.80
2022-08-17T12:11:00.491Z,9.60
2022-08-17T12:12:13.645Z,12.40
2022-08-17T12:13:01.791Z,9.20
2022-08-17T12:14:01.849Z,11.50
2022-08-17T12:15:11.358Z,10.90
2022-08-17T12:16:01.383Z,8.60
2022-08-17T12:17:00.489Z,7.50
2022-08-17T12:18:00.358Z,8.20
2022-08-17T12:19:00.569Z,9.60
2022-08-17T12:20:00.340Z,7.20
2022-08-17T12:21:01.477Z,8.50
2022-08-17T12:22:00.309Z,6.70
2022-08-17T12:23:00.359Z,6.20
2022-08-17T12:24:00.723Z,6.40
2022-08-17T12:25:00.308Z,7.30
2022-08-17T12:26:00.347Z,7.70
2022-08-17T12:27:00.230Z,5.80
2022-08-17T12:28:06.430Z,5.20
2022-08-17T12:29:01.262Z,5.00
2022-08-17T12:30:00.213Z,4.40
2022-08-17T12:31:00.209Z,6.10
2022-08-17T12:32:00.209Z,6.40
2022-08-17T12:33:00.210Z,5.10
2022-08-17T12:34:01.079Z,6.40
2022-08-17T12:35:00.389Z,4.50
2022-08-17T12:36:00.349Z,4.60
2022-08-17T12:37:00.128Z,5.20
2022-08-17T12:38:00.148Z,4.70
2022-08-17T12:39:00.141Z,6.40
2022-08-17T12:40:01.344Z,5.30
2022-08-17T12:41:00.282Z,4.70
2022-08-17T12:42:02.522Z,4.90
2022-08-17T12:43:00.045Z,4.60
2022-08-17T12:44:00.101Z,4.60
2022-08-17T12:45:00.018Z,4.70
2022-08-17T12:46:00.130Z,4.80
2022-08-17T12:46:59.993Z,4.20
2022-08-17T12:48:00.034Z,4.90
2022-08-17T12:49:00.240Z,7.60
2022-08-17T12:49:59.960Z,5.00
2022-08-17T12:51:00.021Z,5.40
2022-08-17T12:52:00.119Z,6.40
2022-08-17T12:53:02.221Z,5.30
2022-08-17T12:53:59.939Z,5.10
2022-08-17T12:54:59.889Z,4.90
2022-08-17T12:55:59.872Z,6.00
2022-08-17T12:56:59.886Z,4.80
2022-08-17T12:58:01.858Z,5.20
2022-08-17T12:58:59.851Z,6.70
2022-08-17T12:59:59.821Z,4.70
2022-08-17T13:01:00.074Z,6.00
2022-08-17T13:01:59.845Z,4.80
2022-08-17T13:03:00.151Z,5.80